sensor_id;sensor_type;location;lat;lon;timestamp;P1;durP1;ratioP1;P2;durP2;ratioP2
14396;SDS011;50653;0.000;0.000;2022-09-13T00:01:43;4.80;;;2.80;;
14396;SDS011;50653;0.000;0.000;2022-09-13T00:04:09;3.70;;;3.47;;
14396;SDS011;50653;0.000;0.000;2022-09-13T00:06:34;2.47;;;2.37;;
14396;SDS011;50653;0.000;0.000;2022-09-13T00:09:00;6.43;;;3.10;;
14396;SDS011;50653;0.000;0.000;2022-09-13T00:11:26;2.60;;;2.50;;
14396;SDS011;50653;0.000;0.000;2022-09-13T00:13:54;2.90;;;2.80;;
14396;SDS011;50653;0.000;0.000;2022-09-13T00:16:21;2.27;;;2.17;;
14396;SDS011;50653;0.000;0.000;2022-09-13T00:18:49;3.27;;;3.10;;
14396;SDS011;50653;0.000;0.000;2022-09-13T00:21:16;2.87;;;2.77;;
14396;SDS011;50653;0.000;0.000;2022-09-13T00:23:44;5.13;;;3.40;;
14396;SDS011;50653;0.000;0.000;2022-09-13T00:26:12;3.53;;;2.47;;
14396;SDS011;50653;0.000;0.000;2022-09-13T00:28:39;3.60;;;2.43;;
14396;SDS011;50653;0.000;0.000;2022-09-13T00:31:06;2.47;;;2.27;;
14396;SDS011;50653;0.000;0.000;2022-09-13T00:33:33;2.80;;;2.70;;
14396;SDS011;50653;0.000;0.000;2022-09-13T00:36:02;4.90;;;3.00;;
14396;SDS011;50653;0.000;0.000;2022-09-13T00:38:29;2.83;;;2.63;;
14396;SDS011;50653;0.000;0.000;2022-09-13T00:40:55;2.80;;;2.37;;
14396;SDS011;50653;0.000;0.000;2022-09-13T00:43:36;2.73;;;2.53;;
14396;SDS011;50653;0.000;0.000;2022-09-13T00:51:38;3.20;;;2.80;;
14396;SDS011;50653;0.000;0.000;2022-09-13T00:54:09;3.37;;;3.00;;
14396;SDS011;50653;0.000;0.000;2022-09-13T00:56:40;3.00;;;2.60;;
14396;SDS011;50653;0.000;0.000;2022-09-13T00:59:14;3.00;;;2.70;;
14396;SDS011;50653;0.000;0.000;2022-09-13T01:01:48;2.93;;;2.73;;
14396;SDS011;50653;0.000;0.000;2022-09-13T01:04:19;3.57;;;3.23;;
14396;SDS011;50653;0.000;0.000;2022-09-13T01:06:46;3.10;;;2.93;;
14396;SDS011;50653;0.000;0.000;2022-09-13T01:09:14;3.20;;;3.10;;
14396;SDS011;50653;0.000;0.000;2022-09-13T01:11:50;2.83;;;2.60;;
14396;SDS011;50653;0.000;0.000;2022-09-13T01:14:29;3.07;;;2.83;;
14396;SDS011;50653;0.000;0.000;2022-09-13T01:16:56;2.17;;;2.07;;
14396;SDS011;50653;0.000;0.000;2022-09-13T01:19:21;3.10;;;2.90;;
14396;SDS011;50653;0.000;0.000;2022-09-13T01:24:53;2.37;;;2.17;;
14396;SDS011;50653;0.000;0.000;2022-09-13T01:27:46;1.83;;;1.73;;
14396;SDS011;50653;0.000;0.000;2022-09-13T01:30:39;3.10;;;2.90;;
14396;SDS011;50653;0.000;0.000;2022-09-13T01:36:00;5.70;;;2.17;;
14396;SDS011;50653;0.000;0.000;2022-09-13T01:38:45;2.60;;;2.50;;
14396;SDS011;50653;0.000;0.000;2022-09-13T01:44:44;4.10;;;3.10;;
14396;SDS011;50653;0.000;0.000;2022-09-13T01:47:32;2.50;;;2.40;;
14396;SDS011;50653;0.000;0.000;2022-09-13T01:52:53;3.10;;;2.50;;
14396;SDS011;50653;0.000;0.000;2022-09-13T01:58:25;2.80;;;2.70;;
14396;SDS011;50653;0.000;0.000;2022-09-13T02:03:54;3.50;;;3.00;;
14396;SDS011;50653;0.000;0.000;2022-09-13T02:09:23;2.30;;;2.20;;
14396;SDS011;50653;0.000;0.000;2022-09-13T02:11:53;2.40;;;2.20;;
14396;SDS011;50653;0.000;0.000;2022-09-13T02:14:38;2.60;;;2.40;;
14396;SDS011;50653;0.000;0.000;2022-09-13T02:17:10;2.50;;;2.40;;
14396;SDS011;50653;0.000;0.000;2022-09-13T02:19:42;3.70;;;2.60;;
14396;SDS011;50653;0.000;0.000;2022-09-13T02:22:19;2.37;;;2.27;;
14396;SDS011;50653;0.000;0.000;2022-09-13T02:24:50;2.90;;;1.67;;
14396;SDS011;50653;0.000;0.000;2022-09-13T02:27:23;2.50;;;2.40;;
14396;SDS011;50653;0.000;0.000;2022-09-13T02:29:56;3.73;;;2.00;;
14396;SDS011;50653;0.000;0.000;2022-09-13T02:32:29;2.07;;;1.87;;
14396;SDS011;50653;0.000;0.000;2022-09-13T02:35:01;2.33;;;2.23;;
14396;SDS011;50653;0.000;0.000;2022-09-13T02:37:31;2.10;;;2.00;;
14396;SDS011;50653;0.000;0.000;2022-09-13T02:40:04;2.63;;;2.43;;
14396;SDS011;50653;0.000;0.000;2022-09-13T02:42:36;2.57;;;2.30;;
14396;SDS011;50653;0.000;0.000;2022-09-13T02:45:09;2.60;;;2.40;;
14396;SDS011;50653;0.000;0.000;2022-09-13T02:50:40;1.83;;;1.70;;
14396;SDS011;50653;0.000;0.000;2022-09-13T02:53:15;2.77;;;2.57;;
14396;SDS011;50653;0.000;0.000;2022-09-13T02:58:44;2.17;;;1.47;;
14396;SDS011;50653;0.000;0.000;2022-09-13T03:01:18;3.50;;;1.90;;
14396;SDS011;50653;0.000;0.000;2022-09-13T03:03:45;1.80;;;1.70;;
14396;SDS011;50653;0.000;0.000;2022-09-13T03:06:11;3.20;;;2.03;;
14396;SDS011;50653;0.000;0.000;2022-09-13T03:08:37;2.70;;;2.60;;
14396;SDS011;50653;0.000;0.000;2022-09-13T03:11:14;1.90;;;1.80;;
14396;SDS011;50653;0.000;0.000;2022-09-13T03:14:01;1.83;;;1.70;;
14396;SDS011;50653;0.000;0.000;2022-09-13T03:16:36;2.40;;;1.97;;
14396;SDS011;50653;0.000;0.000;2022-09-13T03:30:04;2.50;;;2.30;;
14396;SDS011;50653;0.000;0.000;2022-09-13T03:35:20;1.70;;;1.60;;
14396;SDS011;50653;0.000;0.000;2022-09-13T03:37:56;2.43;;;2.30;;
14396;SDS011;50653;0.000;0.000;2022-09-13T03:40:46;2.50;;;2.00;;
14396;SDS011;50653;0.000;0.000;2022-09-13T03:43:30;2.00;;;1.90;;
14396;SDS011;50653;0.000;0.000;2022-09-13T03:46:03;3.00;;;2.80;;
14396;SDS011;50653;0.000;0.000;2022-09-13T03:48:34;2.20;;;1.87;;
14396;SDS011;50653;0.000;0.000;2022-09-13T03:51:02;1.93;;;1.83;;
14396;SDS011;50653;0.000;0.000;2022-09-13T03:53:29;2.00;;;1.90;;
14396;SDS011;50653;0.000;0.000;2022-09-13T03:55:58;2.03;;;1.93;;
14396;SDS011;50653;0.000;0.000;2022-09-13T03:58:24;1.87;;;1.77;;
14396;SDS011;50653;0.000;0.000;2022-09-13T04:00:50;2.17;;;2.00;;
14396;SDS011;50653;0.000;0.000;2022-09-13T04:03:17;3.60;;;1.37;;
14396;SDS011;50653;0.000;0.000;2022-09-13T04:05:42;2.10;;;2.00;;
14396;SDS011;50653;0.000;0.000;2022-09-13T04:08:08;1.90;;;1.80;;
14396;SDS011;50653;0.000;0.000;2022-09-13T04:10:34;4.53;;;1.60;;
14396;SDS011;50653;0.000;0.000;2022-09-13T04:13:01;3.53;;;1.97;;
14396;SDS011;50653;0.000;0.000;2022-09-13T04:15:28;2.90;;;1.80;;
14396;SDS011;50653;0.000;0.000;2022-09-13T04:17:55;6.50;;;2.07;;
14396;SDS011;50653;0.000;0.000;2022-09-13T04:20:21;1.80;;;1.70;;
14396;SDS011;50653;0.000;0.000;2022-09-13T04:22:53;1.73;;;1.63;;
14396;SDS011;50653;0.000;0.000;2022-09-13T04:25:20;2.50;;;1.87;;
14396;SDS011;50653;0.000;0.000;2022-09-13T04:27:46;3.20;;;2.40;;
14396;SDS011;50653;0.000;0.000;2022-09-13T04:30:13;2.00;;;1.90;;
14396;SDS011;50653;0.000;0.000;2022-09-13T04:32:40;1.40;;;1.30;;
14396;SDS011;50653;0.000;0.000;2022-09-13T04:35:07;1.57;;;1.47;;
14396;SDS011;50653;0.000;0.000;2022-09-13T04:37:33;1.80;;;1.70;;
14396;SDS011;50653;0.000;0.000;2022-09-13T04:39:58;1.90;;;1.80;;
14396;SDS011;50653;0.000;0.000;2022-09-13T04:42:24;1.87;;;1.77;;
14396;SDS011;50653;0.000;0.000;2022-09-13T04:44:50;3.17;;;2.87;;
14396;SDS011;50653;0.000;0.000;2022-09-13T04:47:15;11.73;;;1.97;;
14396;SDS011;50653;0.000;0.000;2022-09-13T04:49:41;9.63;;;2.07;;
14396;SDS011;50653;0.000;0.000;2022-09-13T04:52:06;2.43;;;1.90;;
14396;SDS011;50653;0.000;0.000;2022-09-13T04:54:32;2.90;;;2.50;;
14396;SDS011;50653;0.000;0.000;2022-09-13T04:56:58;3.47;;;1.80;;
14396;SDS011;50653;0.000;0.000;2022-09-13T04:59:23;3.93;;;1.67;;
14396;SDS011;50653;0.000;0.000;2022-09-13T05:01:49;5.40;;;1.60;;
14396;SDS011;50653;0.000;0.000;2022-09-13T05:04:15;1.87;;;1.70;;
14396;SDS011;50653;0.000;0.000;2022-09-13T05:06:40;2.07;;;1.27;;
14396;SDS011;50653;0.000;0.000;2022-09-13T05:09:06;2.00;;;1.90;;
14396;SDS011;50653;0.000;0.000;2022-09-13T05:11:35;6.90;;;2.07;;
14396;SDS011;50653;0.000;0.000;2022-09-13T05:14:01;3.17;;;1.87;;
14396;SDS011;50653;0.000;0.000;2022-09-13T05:16:28;2.50;;;2.40;;
14396;SDS011;50653;0.000;0.000;2022-09-13T05:18:55;7.17;;;2.03;;
14396;SDS011;50653;0.000;0.000;2022-09-13T05:21:21;2.30;;;2.20;;
14396;SDS011;50653;0.000;0.000;2022-09-13T05:23:49;1.70;;;1.60;;
14396;SDS011;50653;0.000;0.000;2022-09-13T05:26:16;1.73;;;1.63;;
14396;SDS011;50653;0.000;0.000;2022-09-13T05:28:42;3.53;;;2.13;;
14396;SDS011;50653;0.000;0.000;2022-09-13T05:31:21;2.23;;;1.70;;
14396;SDS011;50653;0.000;0.000;2022-09-13T05:33:52;3.70;;;2.33;;
14396;SDS011;50653;0.000;0.000;2022-09-13T05:36:23;2.53;;;1.80;;
14396;SDS011;50653;0.000;0.000;2022-09-13T05:38:50;3.20;;;1.47;;
14396;SDS011;50653;0.000;0.000;2022-09-13T05:41:16;1.80;;;1.70;;
14396;SDS011;50653;0.000;0.000;2022-09-13T05:43:42;1.93;;;1.83;;
14396;SDS011;50653;0.000;0.000;2022-09-13T05:46:11;2.13;;;1.70;;
14396;SDS011;50653;0.000;0.000;2022-09-13T05:48:39;4.33;;;1.90;;
14396;SDS011;50653;0.000;0.000;2022-09-13T05:53:36;2.20;;;1.60;;
14396;SDS011;50653;0.000;0.000;2022-09-13T05:56:06;1.43;;;1.33;;
14396;SDS011;50653;0.000;0.000;2022-09-13T05:58:33;2.30;;;1.63;;
14396;SDS011;50653;0.000;0.000;2022-09-13T06:01:02;2.80;;;2.40;;
14396;SDS011;50653;0.000;0.000;2022-09-13T06:03:28;2.70;;;1.60;;
14396;SDS011;50653;0.000;0.000;2022-09-13T06:05:54;3.53;;;1.57;;
14396;SDS011;50653;0.000;0.000;2022-09-13T06:08:21;1.93;;;1.83;;
14396;SDS011;50653;0.000;0.000;2022-09-13T06:10:54;1.83;;;1.73;;
14396;SDS011;50653;0.000;0.000;2022-09-13T06:13:21;2.73;;;1.57;;
14396;SDS011;50653;0.000;0.000;2022-09-13T06:15:47;1.80;;;1.70;;
14396;SDS011;50653;0.000;0.000;2022-09-13T06:18:13;1.80;;;1.70;;
14396;SDS011;50653;0.000;0.000;2022-09-13T06:20:38;4.90;;;2.63;;
14396;SDS011;50653;0.000;0.000;2022-09-13T06:23:04;1.77;;;1.67;;
14396;SDS011;50653;0.000;0.000;2022-09-13T06:25:30;2.13;;;2.00;;
14396;SDS011;50653;0.000;0.000;2022-09-13T06:27:55;5.87;;;1.73;;
14396;SDS011;50653;0.000;0.000;2022-09-13T06:30:21;2.20;;;1.43;;
14396;SDS011;50653;0.000;0.000;2022-09-13T06:32:46;1.20;;;1.10;;
14396;SDS011;50653;0.000;0.000;2022-09-13T06:35:12;1.47;;;1.20;;
14396;SDS011;50653;0.000;0.000;2022-09-13T06:37:37;2.13;;;1.17;;
14396;SDS011;50653;0.000;0.000;2022-09-13T06:40:03;2.20;;;2.10;;
14396;SDS011;50653;0.000;0.000;2022-09-13T06:42:32;2.00;;;1.27;;
14396;SDS011;50653;0.000;0.000;2022-09-13T06:44:58;1.53;;;1.43;;
14396;SDS011;50653;0.000;0.000;2022-09-13T06:47:24;7.70;;;1.77;;
14396;SDS011;50653;0.000;0.000;2022-09-13T06:49:50;1.87;;;1.77;;
14396;SDS011;50653;0.000;0.000;2022-09-13T06:52:15;1.23;;;1.13;;
14396;SDS011;50653;0.000;0.000;2022-09-13T06:54:41;2.10;;;1.07;;
14396;SDS011;50653;0.000;0.000;2022-09-13T06:57:07;1.30;;;1.20;;
14396;SDS011;50653;0.000;0.000;2022-09-13T06:59:33;6.37;;;2.40;;
14396;SDS011;50653;0.000;0.000;2022-09-13T07:01:59;2.30;;;2.20;;
14396;SDS011;50653;0.000;0.000;2022-09-13T07:04:25;2.30;;;1.30;;
14396;SDS011;50653;0.000;0.000;2022-09-13T07:06:55;2.30;;;2.10;;
14396;SDS011;50653;0.000;0.000;2022-09-13T07:09:21;2.63;;;1.57;;
14396;SDS011;50653;0.000;0.000;2022-09-13T07:11:48;2.90;;;1.20;;
14396;SDS011;50653;0.000;0.000;2022-09-13T07:14:16;2.70;;;1.83;;
14396;SDS011;50653;0.000;0.000;2022-09-13T07:16:44;8.20;;;1.40;;
14396;SDS011;50653;0.000;0.000;2022-09-13T07:19:14;4.30;;;1.37;;
14396;SDS011;50653;0.000;0.000;2022-09-13T07:21:42;1.43;;;1.33;;
14396;SDS011;50653;0.000;0.000;2022-09-13T07:24:08;1.63;;;1.53;;
14396;SDS011;50653;0.000;0.000;2022-09-13T07:26:34;3.00;;;1.03;;
14396;SDS011;50653;0.000;0.000;2022-09-13T07:29:01;8.67;;;1.97;;
14396;SDS011;50653;0.000;0.000;2022-09-13T07:31:30;3.20;;;1.53;;
14396;SDS011;50653;0.000;0.000;2022-09-13T07:34:02;1.30;;;1.20;;
14396;SDS011;50653;0.000;0.000;2022-09-13T07:36:30;1.53;;;1.43;;
14396;SDS011;50653;0.000;0.000;2022-09-13T07:38:57;2.00;;;1.37;;
14396;SDS011;50653;0.000;0.000;2022-09-13T07:41:24;2.03;;;1.60;;
14396;SDS011;50653;0.000;0.000;2022-09-13T07:43:50;2.03;;;1.03;;
14396;SDS011;50653;0.000;0.000;2022-09-13T07:46:18;2.00;;;1.87;;
14396;SDS011;50653;0.000;0.000;2022-09-13T07:48:45;1.70;;;1.40;;
14396;SDS011;50653;0.000;0.000;2022-09-13T07:51:13;2.40;;;1.83;;
14396;SDS011;50653;0.000;0.000;2022-09-13T07:53:40;1.90;;;1.43;;
14396;SDS011;50653;0.000;0.000;2022-09-13T07:56:08;8.30;;;1.60;;
14396;SDS011;50653;0.000;0.000;2022-09-13T07:58:36;1.87;;;1.40;;
14396;SDS011;50653;0.000;0.000;2022-09-13T08:01:07;2.97;;;1.77;;
14396;SDS011;50653;0.000;0.000;2022-09-13T08:03:35;1.93;;;1.83;;
14396;SDS011;50653;0.000;0.000;2022-09-13T08:06:01;2.53;;;1.30;;
14396;SDS011;50653;0.000;0.000;2022-09-13T08:08:28;7.83;;;1.57;;
14396;SDS011;50653;0.000;0.000;2022-09-13T08:10:55;1.60;;;1.50;;
14396;SDS011;50653;0.000;0.000;2022-09-13T08:13:22;2.37;;;1.30;;
14396;SDS011;50653;0.000;0.000;2022-09-13T08:15:48;1.27;;;1.17;;
14396;SDS011;50653;0.000;0.000;2022-09-13T08:18:14;2.40;;;1.63;;
14396;SDS011;50653;0.000;0.000;2022-09-13T08:20:40;2.30;;;1.47;;
14396;SDS011;50653;0.000;0.000;2022-09-13T08:23:06;1.40;;;1.30;;
14396;SDS011;50653;0.000;0.000;2022-09-13T08:25:34;2.40;;;0.80;;
14396;SDS011;50653;0.000;0.000;2022-09-13T08:28:22;2.07;;;1.40;;
14396;SDS011;50653;0.000;0.000;2022-09-13T08:30:47;1.60;;;1.00;;
14396;SDS011;50653;0.000;0.000;2022-09-13T08:33:13;1.00;;;1.00;;
14396;SDS011;50653;0.000;0.000;2022-09-13T08:35:39;1.27;;;1.17;;
14396;SDS011;50653;0.000;0.000;2022-09-13T08:38:05;3.00;;;1.20;;
14396;SDS011;50653;0.000;0.000;2022-09-13T08:40:32;0.90;;;0.80;;
14396;SDS011;50653;0.000;0.000;2022-09-13T08:43:28;3.37;;;0.90;;
14396;SDS011;50653;0.000;0.000;2022-09-13T08:46:04;1.47;;;0.93;;
14396;SDS011;50653;0.000;0.000;2022-09-13T08:48:32;1.03;;;0.97;;
14396;SDS011;50653;0.000;0.000;2022-09-13T08:51:02;3.73;;;1.37;;
14396;SDS011;50653;0.000;0.000;2022-09-13T08:53:31;2.40;;;1.07;;
14396;SDS011;50653;0.000;0.000;2022-09-13T08:56:09;0.90;;;0.80;;
14396;SDS011;50653;0.000;0.000;2022-09-13T08:58:52;1.10;;;1.00;;
14396;SDS011;50653;0.000;0.000;2022-09-13T09:01:51;2.00;;;1.20;;
14396;SDS011;50653;0.000;0.000;2022-09-13T09:04:29;1.37;;;1.17;;
14396;SDS011;50653;0.000;0.000;2022-09-13T09:09:45;3.53;;;1.60;;
14396;SDS011;50653;0.000;0.000;2022-09-13T09:12:23;1.20;;;1.00;;
14396;SDS011;50653;0.000;0.000;2022-09-13T09:15:02;2.20;;;1.17;;
14396;SDS011;50653;0.000;0.000;2022-09-13T09:17:59;1.10;;;1.00;;
14396;SDS011;50653;0.000;0.000;2022-09-13T09:20:41;1.20;;;1.10;;
14396;SDS011;50653;0.000;0.000;2022-09-13T09:23:12;4.73;;;1.10;;
14396;SDS011;50653;0.000;0.000;2022-09-13T09:25:43;1.43;;;1.33;;
14396;SDS011;50653;0.000;0.000;2022-09-13T09:28:13;1.57;;;1.47;;
14396;SDS011;50653;0.000;0.000;2022-09-13T09:30:54;4.53;;;1.10;;
14396;SDS011;50653;0.000;0.000;2022-09-13T09:36:08;1.10;;;1.00;;
14396;SDS011;50653;0.000;0.000;2022-09-13T09:38:44;1.40;;;0.90;;
14396;SDS011;50653;0.000;0.000;2022-09-13T09:41:14;1.17;;;1.07;;
14396;SDS011;50653;0.000;0.000;2022-09-13T09:46:41;1.23;;;1.13;;
14396;SDS011;50653;0.000;0.000;2022-09-13T09:49:23;1.10;;;1.00;;
14396;SDS011;50653;0.000;0.000;2022-09-13T09:52:15;1.93;;;0.90;;
14396;SDS011;50653;0.000;0.000;2022-09-13T09:54:45;1.77;;;1.20;;
14396;SDS011;50653;0.000;0.000;2022-09-13T09:57:13;1.00;;;0.90;;
14396;SDS011;50653;0.000;0.000;2022-09-13T09:59:39;1.33;;;0.97;;
14396;SDS011;50653;0.000;0.000;2022-09-13T10:02:15;3.37;;;0.90;;
14396;SDS011;50653;0.000;0.000;2022-09-13T10:04:52;2.07;;;1.13;;
14396;SDS011;50653;0.000;0.000;2022-09-13T10:07:31;1.23;;;1.13;;
14396;SDS011;50653;0.000;0.000;2022-09-13T10:10:02;1.53;;;1.43;;
14396;SDS011;50653;0.000;0.000;2022-09-13T10:12:34;2.20;;;1.20;;
14396;SDS011;50653;0.000;0.000;2022-09-13T10:15:05;1.20;;;1.10;;
14396;SDS011;50653;0.000;0.000;2022-09-13T10:17:41;1.73;;;1.63;;
14396;SDS011;50653;0.000;0.000;2022-09-13T10:22:37;1.60;;;1.33;;
14396;SDS011;50653;0.000;0.000;2022-09-13T10:25:22;2.90;;;1.40;;
14396;SDS011;50653;0.000;0.000;2022-09-13T10:27:54;1.50;;;1.00;;
14396;SDS011;50653;0.000;0.000;2022-09-13T10:30:29;1.20;;;1.10;;
14396;SDS011;50653;0.000;0.000;2022-09-13T10:32:59;1.40;;;1.30;;
14396;SDS011;50653;0.000;0.000;2022-09-13T10:35:25;1.33;;;1.23;;
14396;SDS011;50653;0.000;0.000;2022-09-13T10:37:51;1.40;;;1.30;;
14396;SDS011;50653;0.000;0.000;2022-09-13T10:43:03;2.23;;;1.50;;
14396;SDS011;50653;0.000;0.000;2022-09-13T10:45:40;5.47;;;1.87;;
14396;SDS011;50653;0.000;0.000;2022-09-13T10:48:13;1.90;;;1.80;;
14396;SDS011;50653;0.000;0.000;2022-09-13T10:50:43;1.60;;;1.50;;
14396;SDS011;50653;0.000;0.000;2022-09-13T10:53:31;2.20;;;1.47;;
14396;SDS011;50653;0.000;0.000;2022-09-13T10:56:00;1.37;;;1.27;;
14396;SDS011;50653;0.000;0.000;2022-09-13T10:58:26;2.90;;;1.67;;
14396;SDS011;50653;0.000;0.000;2022-09-13T11:03:43;4.63;;;1.40;;
14396;SDS011;50653;0.000;0.000;2022-09-13T11:11:26;2.80;;;2.60;;
14396;SDS011;50653;0.000;0.000;2022-09-13T11:16:52;3.77;;;2.03;;
14396;SDS011;50653;0.000;0.000;2022-09-13T11:25:38;1.83;;;1.73;;
14396;SDS011;50653;0.000;0.000;2022-09-13T11:31:27;3.13;;;1.77;;
14396;SDS011;50653;0.000;0.000;2022-09-13T11:34:12;8.30;;;2.10;;
14396;SDS011;50653;0.000;0.000;2022-09-13T11:37:10;3.27;;;2.30;;
14396;SDS011;50653;0.000;0.000;2022-09-13T11:39:47;2.10;;;1.77;;
14396;SDS011;50653;0.000;0.000;2022-09-13T11:45:17;2.03;;;1.40;;
14396;SDS011;50653;0.000;0.000;2022-09-13T11:50:46;1.47;;;1.37;;
14396;SDS011;50653;0.000;0.000;2022-09-13T11:56:06;6.57;;;1.73;;
14396;SDS011;50653;0.000;0.000;2022-09-13T12:01:18;2.53;;;1.90;;
14396;SDS011;50653;0.000;0.000;2022-09-13T12:03:59;2.00;;;1.90;;
14396;SDS011;50653;0.000;0.000;2022-09-13T12:06:42;1.97;;;1.87;;
14396;SDS011;50653;0.000;0.000;2022-09-13T12:09:25;2.83;;;1.87;;
14396;SDS011;50653;0.000;0.000;2022-09-13T12:17:22;2.13;;;1.43;;
14396;SDS011;50653;0.000;0.000;2022-09-13T12:19:51;1.50;;;1.40;;
14396;SDS011;50653;0.000;0.000;2022-09-13T12:22:21;1.60;;;1.43;;
14396;SDS011;50653;0.000;0.000;2022-09-13T12:24:52;1.97;;;1.23;;
14396;SDS011;50653;0.000;0.000;2022-09-13T12:27:33;1.40;;;1.30;;
14396;SDS011;50653;0.000;0.000;2022-09-13T12:30:05;5.23;;;1.10;;
14396;SDS011;50653;0.000;0.000;2022-09-13T12:32:31;2.77;;;1.73;;
14396;SDS011;50653;0.000;0.000;2022-09-13T12:35:02;1.60;;;1.30;;
14396;SDS011;50653;0.000;0.000;2022-09-13T12:37:48;4.70;;;1.10;;
14396;SDS011;50653;0.000;0.000;2022-09-13T12:40:55;2.90;;;1.23;;
14396;SDS011;50653;0.000;0.000;2022-09-13T12:43:32;3.80;;;1.60;;
14396;SDS011;50653;0.000;0.000;2022-09-13T12:49:30;1.47;;;1.20;;
14396;SDS011;50653;0.000;0.000;2022-09-13T12:52:11;1.27;;;1.17;;
14396;SDS011;50653;0.000;0.000;2022-09-13T12:54:51;1.37;;;1.27;;
14396;SDS011;50653;0.000;0.000;2022-09-13T12:57:40;1.30;;;1.20;;
14396;SDS011;50653;0.000;0.000;2022-09-13T13:00:23;1.73;;;1.63;;
14396;SDS011;50653;0.000;0.000;2022-09-13T13:03:03;1.53;;;1.43;;
14396;SDS011;50653;0.000;0.000;2022-09-13T13:05:35;1.60;;;1.50;;
14396;SDS011;50653;0.000;0.000;2022-09-13T13:10:58;1.67;;;1.50;;
14396;SDS011;50653;0.000;0.000;2022-09-13T13:13:33;1.40;;;1.30;;
14396;SDS011;50653;0.000;0.000;2022-09-13T13:16:02;1.87;;;1.77;;
14396;SDS011;50653;0.000;0.000;2022-09-13T13:18:46;1.77;;;1.57;;
14396;SDS011;50653;0.000;0.000;2022-09-13T13:21:24;2.00;;;1.90;;
14396;SDS011;50653;0.000;0.000;2022-09-13T13:26:46;4.90;;;1.53;;
14396;SDS011;50653;0.000;0.000;2022-09-13T13:29:15;1.57;;;1.27;;
14396;SDS011;50653;0.000;0.000;2022-09-13T13:34:40;2.10;;;1.60;;
14396;SDS011;50653;0.000;0.000;2022-09-13T13:39:46;2.00;;;1.90;;
14396;SDS011;50653;0.000;0.000;2022-09-13T13:42:21;4.50;;;1.30;;
14396;SDS011;50653;0.000;0.000;2022-09-13T13:50:03;2.40;;;1.60;;
14396;SDS011;50653;0.000;0.000;2022-09-13T13:52:49;1.60;;;1.50;;
14396;SDS011;50653;0.000;0.000;2022-09-13T13:55:27;4.57;;;1.20;;
14396;SDS011;50653;0.000;0.000;2022-09-13T13:58:09;0.90;;;0.90;;
14396;SDS011;50653;0.000;0.000;2022-09-13T14:00:49;1.83;;;1.07;;
14396;SDS011;50653;0.000;0.000;2022-09-13T14:09:27;2.60;;;1.40;;
14396;SDS011;50653;0.000;0.000;2022-09-13T14:15:27;1.33;;;1.17;;
14396;SDS011;50653;0.000;0.000;2022-09-13T14:21:00;0.70;;;0.60;;
14396;SDS011;50653;0.000;0.000;2022-09-13T14:23:27;1.33;;;1.23;;
14396;SDS011;50653;0.000;0.000;2022-09-13T14:25:54;1.43;;;1.33;;
14396;SDS011;50653;0.000;0.000;2022-09-13T14:28:22;1.30;;;1.10;;
14396;SDS011;50653;0.000;0.000;2022-09-13T14:30:55;1.73;;;0.93;;
14396;SDS011;50653;0.000;0.000;2022-09-13T14:36:05;0.83;;;0.80;;
14396;SDS011;50653;0.000;0.000;2022-09-13T14:38:45;1.30;;;1.20;;
14396;SDS011;50653;0.000;0.000;2022-09-13T14:41:20;3.10;;;1.90;;
14396;SDS011;50653;0.000;0.000;2022-09-13T14:43:53;5.73;;;1.40;;
14396;SDS011;50653;0.000;0.000;2022-09-13T14:46:38;0.93;;;0.80;;
14396;SDS011;50653;0.000;0.000;2022-09-13T14:49:07;0.90;;;0.80;;
14396;SDS011;50653;0.000;0.000;2022-09-13T14:51:44;5.33;;;4.83;;
14396;SDS011;50653;0.000;0.000;2022-09-13T14:54:14;2.13;;;2.03;;
14396;SDS011;50653;0.000;0.000;2022-09-13T14:56:51;2.00;;;1.90;;
14396;SDS011;50653;0.000;0.000;2022-09-13T14:59:34;1.10;;;1.00;;
14396;SDS011;50653;0.000;0.000;2022-09-13T15:04:47;1.17;;;1.07;;
14396;SDS011;50653;0.000;0.000;2022-09-13T15:09:54;1.63;;;1.53;;
14396;SDS011;50653;0.000;0.000;2022-09-13T15:12:29;2.23;;;1.20;;
14396;SDS011;50653;0.000;0.000;2022-09-13T15:20:18;1.30;;;1.00;;
14396;SDS011;50653;0.000;0.000;2022-09-13T15:22:45;0.80;;;0.80;;
14396;SDS011;50653;0.000;0.000;2022-09-13T15:25:20;1.83;;;0.97;;
14396;SDS011;50653;0.000;0.000;2022-09-13T15:27:52;1.23;;;1.13;;
14396;SDS011;50653;0.000;0.000;2022-09-13T15:32:45;2.20;;;1.10;;
14396;SDS011;50653;0.000;0.000;2022-09-13T15:35:24;1.00;;;1.00;;
14396;SDS011;50653;0.000;0.000;2022-09-13T15:38:01;4.57;;;1.00;;
14396;SDS011;50653;0.000;0.000;2022-09-13T15:40:40;1.50;;;1.40;;
14396;SDS011;50653;0.000;0.000;2022-09-13T15:43:07;2.43;;;1.63;;
14396;SDS011;50653;0.000;0.000;2022-09-13T15:45:33;0.80;;;0.73;;
14396;SDS011;50653;0.000;0.000;2022-09-13T15:47:59;4.03;;;1.10;;
14396;SDS011;50653;0.000;0.000;2022-09-13T15:50:26;1.40;;;1.30;;
14396;SDS011;50653;0.000;0.000;2022-09-13T15:52:55;1.20;;;0.97;;
14396;SDS011;50653;0.000;0.000;2022-09-13T15:55:22;1.10;;;1.00;;
14396;SDS011;50653;0.000;0.000;2022-09-13T15:57:49;1.27;;;1.00;;
14396;SDS011;50653;0.000;0.000;2022-09-13T16:00:19;3.13;;;2.93;;
14396;SDS011;50653;0.000;0.000;2022-09-13T16:02:50;2.60;;;1.00;;
14396;SDS011;50653;0.000;0.000;2022-09-13T16:05:16;1.50;;;1.40;;
14396;SDS011;50653;0.000;0.000;2022-09-13T16:07:42;1.00;;;0.90;;
14396;SDS011;50653;0.000;0.000;2022-09-13T16:10:15;1.20;;;1.10;;
14396;SDS011;50653;0.000;0.000;2022-09-13T16:12:44;1.43;;;1.13;;
14396;SDS011;50653;0.000;0.000;2022-09-13T16:15:10;1.23;;;1.10;;
14396;SDS011;50653;0.000;0.000;2022-09-13T16:17:37;2.27;;;1.40;;
14396;SDS011;50653;0.000;0.000;2022-09-13T16:20:03;1.53;;;1.20;;
14396;SDS011;50653;0.000;0.000;2022-09-13T16:22:32;2.10;;;1.90;;
14396;SDS011;50653;0.000;0.000;2022-09-13T16:24:57;1.77;;;1.67;;
14396;SDS011;50653;0.000;0.000;2022-09-13T16:27:23;5.10;;;2.20;;
14396;SDS011;50653;0.000;0.000;2022-09-13T16:29:50;4.13;;;1.37;;
14396;SDS011;50653;0.000;0.000;2022-09-13T16:32:16;1.40;;;1.30;;
14396;SDS011;50653;0.000;0.000;2022-09-13T16:34:42;1.67;;;1.03;;
14396;SDS011;50653;0.000;0.000;2022-09-13T16:37:09;6.07;;;1.67;;
14396;SDS011;50653;0.000;0.000;2022-09-13T16:39:41;2.10;;;1.10;;
14396;SDS011;50653;0.000;0.000;2022-09-13T16:42:07;1.70;;;1.60;;
14396;SDS011;50653;0.000;0.000;2022-09-13T16:44:32;1.77;;;1.67;;
14396;SDS011;50653;0.000;0.000;2022-09-13T16:46:58;1.67;;;1.40;;
14396;SDS011;50653;0.000;0.000;2022-09-13T16:49:24;1.60;;;1.40;;
14396;SDS011;50653;0.000;0.000;2022-09-13T16:51:50;1.50;;;1.40;;
14396;SDS011;50653;0.000;0.000;2022-09-13T16:54:16;3.70;;;1.23;;
14396;SDS011;50653;0.000;0.000;2022-09-13T16:56:41;1.97;;;1.77;;
14396;SDS011;50653;0.000;0.000;2022-09-13T16:59:07;4.53;;;1.40;;
14396;SDS011;50653;0.000;0.000;2022-09-13T17:01:32;1.60;;;1.50;;
14396;SDS011;50653;0.000;0.000;2022-09-13T17:03:58;1.63;;;1.53;;
14396;SDS011;50653;0.000;0.000;2022-09-13T17:06:24;1.30;;;1.20;;
14396;SDS011;50653;0.000;0.000;2022-09-13T17:08:58;3.70;;;3.40;;
14396;SDS011;50653;0.000;0.000;2022-09-13T17:11:26;3.00;;;2.00;;
14396;SDS011;50653;0.000;0.000;2022-09-13T17:13:54;2.20;;;1.80;;
14396;SDS011;50653;0.000;0.000;2022-09-13T17:16:30;4.77;;;4.57;;
14396;SDS011;50653;0.000;0.000;2022-09-13T17:18:58;2.93;;;2.63;;
14396;SDS011;50653;0.000;0.000;2022-09-13T17:21:26;2.43;;;2.03;;
14396;SDS011;50653;0.000;0.000;2022-09-13T17:23:52;2.57;;;2.03;;
14396;SDS011;50653;0.000;0.000;2022-09-13T17:26:21;2.10;;;1.77;;
14396;SDS011;50653;0.000;0.000;2022-09-13T17:28:47;2.60;;;2.40;;
14396;SDS011;50653;0.000;0.000;2022-09-13T17:31:13;2.07;;;1.90;;
14396;SDS011;50653;0.000;0.000;2022-09-13T17:33:39;3.47;;;2.57;;
14396;SDS011;50653;0.000;0.000;2022-09-13T17:36:06;2.20;;;2.10;;
14396;SDS011;50653;0.000;0.000;2022-09-13T17:38:36;2.73;;;2.53;;
14396;SDS011;50653;0.000;0.000;2022-09-13T17:41:06;2.97;;;2.77;;
14396;SDS011;50653;0.000;0.000;2022-09-13T17:43:34;3.60;;;3.27;;
14396;SDS011;50653;0.000;0.000;2022-09-13T17:46:04;2.70;;;2.50;;
14396;SDS011;50653;0.000;0.000;2022-09-13T17:48:31;2.93;;;2.63;;
14396;SDS011;50653;0.000;0.000;2022-09-13T17:51:04;4.10;;;3.90;;